CheckWX is a tool to help pilots better visualize weather data.  It is not intended as a substitute for an official pre-flight weather briefing.

10:36:53 UTC

OAHR METAR
Herat Airport
Afghanistan
Current

42 mins ago

OAHR 260955Z 03016G28KT CAVOK 37/00 Q1012 RMK A2989 BLU
Observed
Jun-26 @ 09:55 UTC
Wind
  • 030° at 16 KTS
  • Gusting to 28 KTS
Visibility
10,000+ meters
Flight Rules
VFR
Cloud Levels
  • Clear skies
Temperature
37°C / 99°F
Dewpoint
C / 32°F
Humidity
10%
Altimeter
29.88" Hg
Pressure
1011.92 hPa
Previous

2 hours ago

OAHR 260855Z 05015G25KT CAVOK 38/M02 Q1012 RMK A2989 BLU
Observed
Jun-26 @ 08:55 UTC
Wind
  • 050° at 15 KTS
  • Gusting to 25 KTS
Visibility
10,000+ meters
Flight Rules
VFR
Cloud Levels
  • Clear skies
Temperature
38°C / 100°F
Dewpoint
-2°C / 28°F
Humidity
8%
Altimeter
29.88" Hg
Pressure
1011.92 hPa
Previous

3 hours ago

OAHR 260755Z 04008G18KT CAVOK 37/M01 Q1012 RMK A2990 BLU
Observed
Jun-26 @ 07:55 UTC
Wind
  • 040° at 8 KTS
  • Gusting to 18 KTS
Visibility
10,000+ meters
Flight Rules
VFR
Cloud Levels
  • Clear skies
Temperature
37°C / 99°F
Dewpoint
-1°C / 30°F
Humidity
9%
Altimeter
29.88" Hg
Pressure
1011.92 hPa